Time;durP1;ratioP1;P1;durP2;ratioP2;P2;SDS_P1;SDS_P2;PMS_P1;PMS_P2;Temp;Humidity;BMP_temperature;BMP_pressure;BME280_temperature;BME280_humidity;BME280_pressure;Samples;Min_cycle;Max_cycle;Signal;HPM_P1;HPM_P2
2022/04/27 00:00:16;;;;;;;;;;;21.60;37.20;;;;;;481871;246;1089;-76
2022/04/27 00:02:17;;;;;;;;;;;21.60;37.20;;;;;;481824;247;1216;-76
2022/04/27 00:04:18;;;;;;;;;;;21.50;37.30;;;;;;481855;247;1040;-75
2022/04/27 00:06:19;;;;;;;;;;;21.50;37.30;;;;;;481897;246;1225;-75
2022/04/27 00:08:21;;;;;;;;;;;21.50;37.30;;;;;;481853;247;1057;-75
2022/04/27 00:10:22;;;;;;;;;;;21.50;37.30;;;;;;481876;246;1070;-75
2022/04/27 00:12:24;;;;;;;;;;;21.50;37.40;;;;;;481850;246;2138;-75
2022/04/27 00:14:25;;;;;;;;;;;21.50;37.20;;;;;;481807;247;1061;-75
2022/04/27 00:16:26;;;;;;;;;;;21.60;37.30;;;;;;481898;246;1236;-75
2022/04/27 00:18:27;;;;;;;;;;;21.60;37.00;;;;;;481905;246;967;-76
2022/04/27 00:20:29;;;;;;;;;;;21.70;36.90;;;;;;481854;247;1139;-75
2022/04/27 00:22:30;;;;;;;;;;;21.70;36.90;;;;;;481992;246;1087;-76
2022/04/27 00:24:32;;;;;;;;;;;21.70;36.80;;;;;;481906;247;999;-76
2022/04/27 00:26:33;;;;;;;;;;;21.70;36.80;;;;;;482011;246;1220;-76
2022/04/27 00:28:34;;;;;;;;;;;21.70;36.80;;;;;;481837;247;1046;-76
2022/04/27 00:30:36;;;;;;;;;;;21.70;36.90;;;;;;481942;246;1236;-76
2022/04/27 00:32:37;;;;;;;;;;;21.60;36.80;;;;;;481750;247;2220;-76
2022/04/27 00:34:39;;;;;;;;;;;21.60;36.90;;;;;;481781;247;1115;-75
2022/04/27 00:36:40;;;;;;;;;;;21.60;37.00;;;;;;481875;246;1317;-76
2022/04/27 00:38:41;;;;;;;;;;;21.60;36.90;;;;;;481800;246;1023;-76
2022/04/27 00:40:43;;;;;;;;;;;21.70;36.80;;;;;;481856;247;1202;-75
2022/04/27 00:42:44;;;;;;;;;;;21.80;36.60;;;;;;482046;247;1077;-76
2022/04/27 00:44:46;;;;;;;;;;;21.80;36.50;;;;;;481808;246;1072;-75
2022/04/27 00:46:46;;;;;;;;;;;21.90;36.50;;;;;;481855;247;1488;-75
2022/04/27 00:48:48;;;;;;;;;;;22.00;36.20;;;;;;481865;246;1081;-75
2022/04/27 00:50:49;;;;;;;;;;;22.20;36.10;;;;;;481877;247;1257;-75
2022/04/27 00:52:50;;;;;;;;;;;22.20;35.80;;;;;;481886;246;2189;-75
2022/04/27 00:54:52;;;;;;;;;;;22.50;35.60;;;;;;481981;246;1109;-75
2022/04/27 00:56:53;;;;;;;;;;;22.50;35.40;;;;;;481893;247;1139;-75
2022/04/27 00:58:54;;;;;;;;;;;22.60;35.40;;;;;;482008;246;1078;-75
2022/04/27 01:00:56;;;;;;;;;;;22.60;35.40;;;;;;481975;247;1141;-75
2022/04/27 01:02:57;;;;;;;;;;;22.70;35.20;;;;;;481847;246;1210;-76
2022/04/27 01:04:58;;;;;;;;;;;22.70;35.00;;;;;;481841;246;1040;-76
2022/04/27 01:07:00;;;;;;;;;;;22.70;34.90;;;;;;481956;247;1145;-75
2022/04/27 01:09:01;;;;;;;;;;;22.70;34.90;;;;;;481883;246;1180;-76
2022/04/27 01:11:03;;;;;;;;;;;22.70;35.00;;;;;;481840;246;1218;-76
2022/04/27 01:13:04;;;;;;;;;;;22.60;35.10;;;;;;481922;247;2129;-76
2022/04/27 01:15:05;;;;;;;;;;;22.50;35.20;;;;;;481962;247;1091;-75
2022/04/27 01:17:06;;;;;;;;;;;22.50;35.30;;;;;;481833;247;1209;-76
2022/04/27 01:19:08;;;;;;;;;;;22.40;35.40;;;;;;481937;247;1244;-75
2022/04/27 01:21:09;;;;;;;;;;;22.40;35.40;;;;;;481895;246;1335;-76
2022/04/27 01:23:11;;;;;;;;;;;22.30;35.50;;;;;;481861;247;1146;-76
2022/04/27 01:25:12;;;;;;;;;;;22.20;35.70;;;;;;482028;247;1012;-76
2022/04/27 01:27:13;;;;;;;;;;;22.00;35.80;;;;;;481956;246;1149;-76
2022/04/27 01:29:14;;;;;;;;;;;22.00;35.90;;;;;;481847;247;957;-76
2022/04/27 01:31:16;;;;;;;;;;;22.00;35.90;;;;;;481871;247;1384;-75
2022/04/27 01:33:17;;;;;;;;;;;22.00;35.90;;;;;;481961;247;2185;-75
2022/04/27 01:35:18;;;;;;;;;;;22.00;35.80;;;;;;481871;247;1050;-75
2022/04/27 01:39:39;;;;;;;;;;;21.90;36.00;;;;;;481941;247;1040;-76
2022/04/27 01:41:40;;;;;;;;;;;22.00;35.70;;;;;;481873;247;1222;-75
2022/04/27 01:43:41;;;;;;;;;;;21.60;36.20;;;;;;481880;246;1054;-76
2022/04/27 01:45:43;;;;;;;;;;;21.90;36.10;;;;;;481872;246;1066;-76
2022/04/27 01:47:44;;;;;;;;;;;21.90;35.90;;;;;;481841;247;1196;-76
2022/04/27 01:49:45;;;;;;;;;;;21.70;36.20;;;;;;481875;246;982;-76
2022/04/27 01:54:18;;;;;;;;;;;21.80;36.00;;;;;;490672;243;2105;-75
2022/04/27 01:56:19;;;;;;;;;;;21.90;35.70;;;;;;473707;243;1223;-76
2022/04/27 01:58:22;;;;;;;;;;;21.90;35.80;;;;;;481883;247;1002;-76
2022/04/27 02:00:22;;;;;;;;;;;22.00;35.60;;;;;;481847;247;1385;-76
2022/04/27 02:02:23;;;;;;;;;;;22.10;35.50;;;;;;482050;243;1242;-75
2022/04/27 02:04:25;;;;;;;;;;;22.00;35.60;;;;;;481874;247;965;-76
2022/04/27 02:06:26;;;;;;;;;;;22.00;35.50;;;;;;481934;246;1097;-75
2022/04/27 02:08:27;;;;;;;;;;;21.90;35.80;;;;;;481932;247;1077;-75
2022/04/27 02:10:29;;;;;;;;;;;21.90;35.70;;;;;;481924;247;1141;-75
2022/04/27 02:12:30;;;;;;;;;;;21.90;35.60;;;;;;481846;246;2201;-75
2022/04/27 02:14:31;;;;;;;;;;;22.10;35.50;;;;;;481780;246;980;-75
2022/04/27 02:16:33;;;;;;;;;;;22.10;35.40;;;;;;482001;246;1080;-75
2022/04/27 02:18:35;;;;;;;;;;;22.10;35.50;;;;;;481917;247;1187;-75
2022/04/27 02:20:36;;;;;;;;;;;22.10;35.30;;;;;;482002;246;1843;-75
2022/04/27 02:22:37;;;;;;;;;;;22.00;35.30;;;;;;481877;247;1062;-75
2022/04/27 02:24:38;;;;;;;;;;;22.00;35.40;;;;;;481931;246;1239;-75
2022/04/27 02:26:41;;;;;;;;;;;21.90;35.50;;;;;;481824;247;1535;-75
2022/04/27 02:28:41;;;;;;;;;;;21.90;35.60;;;;;;481831;246;1475;-75
2022/04/27 02:30:42;;;;;;;;;;;21.80;35.60;;;;;;481896;246;1134;-76
2022/04/27 02:32:45;;;;;;;;;;;21.70;35.70;;;;;;481960;246;2188;-75
2022/04/27 02:34:45;;;;;;;;;;;21.60;35.90;;;;;;482042;246;1479;-76
2022/04/27 02:36:46;;;;;;;;;;;21.80;35.70;;;;;;481836;247;1329;-76
2022/04/27 02:38:48;;;;;;;;;;;21.70;35.60;;;;;;481861;246;984;-76
2022/04/27 02:40:49;;;;;;;;;;;21.80;35.60;;;;;;481898;246;1325;-76
2022/04/27 02:42:52;;;;;;;;;;;21.80;35.60;;;;;;481919;247;966;-76
2022/04/27 02:44:52;;;;;;;;;;;21.80;35.50;;;;;;473518;251;1439;-76
2022/04/27 02:46:53;;;;;;;;;;;21.80;35.50;;;;;;482083;246;1210;-75
2022/04/27 02:53:37;;;;;;;;;;;21.80;35.60;;;;;;480195;247;2176;-75
2022/04/27 02:55:39;;;;;;;;;;;21.80;35.50;;;;;;481870;246;1106;-75
2022/04/27 02:57:40;;;;;;;;;;;21.80;35.50;;;;;;481935;247;969;-75
2022/04/27 02:59:42;;;;;;;;;;;21.80;35.60;;;;;;481834;247;1093;-75
2022/04/27 03:01:43;;;;;;;;;;;21.70;35.60;;;;;;481857;247;1165;-75
2022/04/27 03:03:44;;;;;;;;;;;21.80;35.70;;;;;;481904;246;1199;-75
2022/04/27 03:05:46;;;;;;;;;;;21.80;35.60;;;;;;481834;247;1156;-75
2022/04/27 03:07:47;;;;;;;;;;;21.80;35.50;;;;;;481937;246;1208;-75
2022/04/27 03:09:48;;;;;;;;;;;21.80;35.60;;;;;;481910;246;1037;-75
2022/04/27 03:11:50;;;;;;;;;;;21.80;35.60;;;;;;481866;246;1146;-76
2022/04/27 03:13:51;;;;;;;;;;;21.80;35.60;;;;;;481796;247;2185;-76
2022/04/27 03:15:52;;;;;;;;;;;21.80;35.70;;;;;;481902;246;1185;-75
2022/04/27 03:20:14;;;;;;;;;;;21.80;35.60;;;;;;481946;246;1172;-75
2022/04/27 03:22:15;;;;;;;;;;;21.70;35.70;;;;;;481872;247;1177;-76
2022/04/27 03:24:17;;;;;;;;;;;21.70;35.70;;;;;;481894;246;998;-76
2022/04/27 03:26:18;;;;;;;;;;;21.60;35.90;;;;;;481772;247;1581;-75
2022/04/27 03:28:20;;;;;;;;;;;21.60;35.80;;;;;;481942;246;1085;-75
2022/04/27 03:30:21;;;;;;;;;;;21.70;35.70;;;;;;481929;246;1065;-75
2022/04/27 03:32:22;;;;;;;;;;;21.70;35.80;;;;;;481906;247;1142;-75
2022/04/27 03:34:23;;;;;;;;;;;21.70;35.60;;;;;;481886;246;2121;-75
2022/04/27 03:36:25;;;;;;;;;;;21.70;35.70;;;;;;481882;247;1243;-75
2022/04/27 03:38:26;;;;;;;;;;;21.70;35.70;;;;;;481870;247;1177;-75
2022/04/27 03:40:27;;;;;;;;;;;21.70;35.70;;;;;;481902;246;1287;-75
2022/04/27 03:42:29;;;;;;;;;;;21.70;35.70;;;;;;481960;247;1284;-75
2022/04/27 03:44:30;;;;;;;;;;;21.70;35.80;;;;;;481796;247;1172;-75
2022/04/27 03:46:31;;;;;;;;;;;21.70;35.80;;;;;;481841;247;1251;-75
2022/04/27 03:48:33;;;;;;;;;;;21.70;35.70;;;;;;481944;247;1100;-75
2022/04/27 03:50:35;;;;;;;;;;;21.70;35.70;;;;;;481835;247;1131;-75
2022/04/27 03:52:35;;;;;;;;;;;21.80;35.70;;;;;;481935;247;1415;-75
2022/04/27 03:54:37;;;;;;;;;;;21.80;35.70;;;;;;481965;247;2196;-75
2022/04/27 03:56:38;;;;;;;;;;;21.70;35.70;;;;;;481905;246;1231;-75
2022/04/27 03:58:39;;;;;;;;;;;21.80;35.70;;;;;;481835;247;1453;-76
2022/04/27 04:00:41;;;;;;;;;;;21.70;35.70;;;;;;481864;247;1138;-76
2022/04/27 04:02:42;;;;;;;;;;;21.70;35.80;;;;;;481841;247;1203;-76
2022/04/27 04:04:43;;;;;;;;;;;21.70;35.90;;;;;;481923;247;1173;-75
2022/04/27 04:06:45;;;;;;;;;;;21.60;36.00;;;;;;481864;246;1145;-76
2022/04/27 04:08:46;;;;;;;;;;;21.60;36.10;;;;;;481867;247;965;-75
2022/04/27 04:10:47;;;;;;;;;;;21.60;36.10;;;;;;481925;246;1043;-75
2022/04/27 04:12:49;;;;;;;;;;;21.60;36.20;;;;;;481871;246;1208;-77
2022/04/27 04:14:50;;;;;;;;;;;21.60;36.20;;;;;;481815;246;2180;-76
2022/04/27 04:16:52;;;;;;;;;;;21.60;36.20;;;;;;481772;246;1245;-76
2022/04/27 04:18:53;;;;;;;;;;;21.70;36.10;;;;;;481821;246;1111;-76
2022/04/27 04:20:54;;;;;;;;;;;21.60;36.20;;;;;;481824;246;953;-76
2022/04/27 04:22:56;;;;;;;;;;;21.70;36.20;;;;;;481955;246;1185;-76
2022/04/27 04:29:37;;;;;;;;;;;21.80;36.10;;;;;;481683;245;1085;-76
2022/04/27 04:31:38;;;;;;;;;;;21.90;35.90;;;;;;481768;246;1168;-76
2022/04/27 04:33:39;;;;;;;;;;;21.80;35.90;;;;;;481800;247;2134;-76
2022/04/27 04:35:40;;;;;;;;;;;21.80;36.00;;;;;;481803;246;1143;-76
2022/04/27 04:37:42;;;;;;;;;;;21.80;36.10;;;;;;481895;247;1070;-76
2022/04/27 04:39:43;;;;;;;;;;;21.90;36.00;;;;;;481722;246;1025;-76
2022/04/27 04:41:45;;;;;;;;;;;22.00;35.80;;;;;;481655;247;1115;-76
2022/04/27 04:43:46;;;;;;;;;;;21.80;36.10;;;;;;481646;246;965;-76
2022/04/27 04:45:47;;;;;;;;;;;21.80;36.10;;;;;;481628;246;1109;-75
2022/04/27 04:47:48;;;;;;;;;;;21.90;36.00;;;;;;481712;247;1168;-75
2022/04/27 04:49:50;;;;;;;;;;;21.80;36.10;;;;;;481779;246;1173;-76
2022/04/27 04:51:51;;;;;;;;;;;21.80;36.10;;;;;;481627;247;1320;-76
2022/04/27 04:53:53;;;;;;;;;;;21.80;36.30;;;;;;481667;246;2184;-75
2022/04/27 04:55:54;;;;;;;;;;;21.70;36.40;;;;;;481568;247;1428;-76
2022/04/27 04:57:55;;;;;;;;;;;21.80;36.20;;;;;;481700;246;1095;-76
2022/04/27 04:59:56;;;;;;;;;;;21.80;36.30;;;;;;481618;246;1041;-76
2022/04/27 05:01:58;;;;;;;;;;;21.70;36.40;;;;;;481745;246;1501;-75
2022/04/27 05:03:59;;;;;;;;;;;21.80;36.40;;;;;;481733;247;1123;-76
2022/04/27 05:06:00;;;;;;;;;;;21.70;36.40;;;;;;481652;246;1201;-76
2022/04/27 05:08:04;;;;;;;;;;;21.90;36.40;;;;;;481703;247;1053;-76
2022/04/27 05:10:04;;;;;;;;;;;22.30;35.90;;;;;;481730;246;1302;-76
2022/04/27 05:12:05;;;;;;;;;;;22.40;35.50;;;;;;481583;247;1242;-76
2022/04/27 05:14:06;;;;;;;;;;;22.40;35.50;;;;;;481568;247;2181;-76
2022/04/27 05:16:08;;;;;;;;;;;22.30;35.60;;;;;;481621;247;1133;-75
2022/04/27 05:18:09;;;;;;;;;;;22.20;35.70;;;;;;481542;246;1060;-75
2022/04/27 05:20:10;;;;;;;;;;;22.10;35.90;;;;;;481747;246;1155;-76
2022/04/27 05:22:12;;;;;;;;;;;22.00;36.20;;;;;;481616;247;1255;-76
2022/04/27 05:24:13;;;;;;;;;;;21.80;36.50;;;;;;481626;246;1091;-75
2022/04/27 05:26:15;;;;;;;;;;;21.70;36.70;;;;;;481609;247;1222;-75
2022/04/27 05:28:16;;;;;;;;;;;21.50;37.00;;;;;;481594;246;1286;-75
2022/04/27 05:32:36;;;;;;;;;;;21.40;37.40;;;;;;481628;247;1233;-75
2022/04/27 05:34:37;;;;;;;;;;;21.10;37.90;;;;;;481505;246;2121;-75
2022/04/27 05:36:39;;;;;;;;;;;20.70;38.80;;;;;;481592;247;1058;-75
2022/04/27 05:38:40;;;;;;;;;;;20.40;39.20;;;;;;481513;247;1124;-75
2022/04/27 05:40:43;;;;;;;;;;;20.30;39.50;;;;;;481531;246;1068;-75
2022/04/27 05:42:43;;;;;;;;;;;20.30;39.40;;;;;;481438;247;1399;-75
2022/04/27 05:44:44;;;;;;;;;;;20.00;40.00;;;;;;490275;242;1355;-75
2022/04/27 05:46:45;;;;;;;;;;;19.90;40.40;;;;;;473271;251;1227;-75
2022/04/27 05:48:47;;;;;;;;;;;19.80;40.70;;;;;;481412;246;1029;-75
2022/04/27 05:50:48;;;;;;;;;;;19.70;40.80;;;;;;481317;246;1247;-75
2022/04/27 05:52:49;;;;;;;;;;;19.90;40.80;;;;;;481543;246;1203;-75
2022/04/27 05:54:51;;;;;;;;;;;19.70;41.00;;;;;;481499;246;2189;-75
2022/04/27 05:56:53;;;;;;;;;;;19.60;41.40;;;;;;481508;247;1213;-75
2022/04/27 05:58:54;;;;;;;;;;;19.80;41.10;;;;;;481307;247;1032;-75
2022/04/27 06:00:55;;;;;;;;;;;19.60;41.30;;;;;;481598;246;1295;-75
2022/04/27 06:02:57;;;;;;;;;;;19.70;41.20;;;;;;481489;246;1100;-75
2022/04/27 06:04:58;;;;;;;;;;;19.60;41.30;;;;;;481492;246;1032;-75
2022/04/27 06:06:59;;;;;;;;;;;19.70;41.40;;;;;;481464;247;1226;-75
2022/04/27 06:09:01;;;;;;;;;;;19.80;41.30;;;;;;481427;246;1005;-75
2022/04/27 06:11:02;;;;;;;;;;;19.60;41.50;;;;;;481387;247;1110;-75
2022/04/27 06:13:03;;;;;;;;;;;19.40;41.80;;;;;;481489;246;1089;-75
2022/04/27 06:15:05;;;;;;;;;;;19.60;41.90;;;;;;481371;246;2127;-75
2022/04/27 06:17:06;;;;;;;;;;;20.10;41.10;;;;;;481375;247;1056;-75
2022/04/27 06:19:09;;;;;;;;;;;20.70;40.00;;;;;;480980;246;1062;-75
2022/04/27 06:21:09;;;;;;;;;;;21.10;39.00;;;;;;481278;247;1478;-75
2022/04/27 06:23:10;;;;;;;;;;;21.40;38.50;;;;;;481319;246;1114;-75
2022/04/27 06:25:11;;;;;;;;;;;21.80;38.00;;;;;;473034;251;1103;-75
2022/04/27 06:27:13;;;;;;;;;;;22.40;37.20;;;;;;481283;246;1272;-75
2022/04/27 06:29:14;;;;;;;;;;;22.60;36.40;;;;;;481216;247;1063;-75
2022/04/27 06:31:15;;;;;;;;;;;22.90;36.20;;;;;;481181;247;1036;-75
2022/04/27 06:33:17;;;;;;;;;;;23.10;35.80;;;;;;481392;247;1001;-75
2022/04/27 06:35:18;;;;;;;;;;;23.30;35.60;;;;;;481390;246;2177;-75
2022/04/27 06:37:19;;;;;;;;;;;23.40;35.30;;;;;;481402;246;1156;-75
2022/04/27 06:39:21;;;;;;;;;;;23.60;35.00;;;;;;481330;246;1154;-75
2022/04/27 06:41:22;;;;;;;;;;;23.80;34.80;;;;;;481191;247;1307;-75
2022/04/27 06:43:23;;;;;;;;;;;24.00;34.50;;;;;;481310;246;1030;-75
2022/04/27 06:45:27;;;;;;;;;;;23.90;34.50;;;;;;481274;246;1104;-75
2022/04/27 06:47:26;;;;;;;;;;;23.90;34.50;;;;;;481206;246;1239;-75
2022/04/27 06:49:27;;;;;;;;;;;23.90;34.50;;;;;;481073;247;1033;-75
2022/04/27 06:51:29;;;;;;;;;;;23.90;34.60;;;;;;480818;245;1150;-74
2022/04/27 06:53:30;;;;;;;;;;;24.00;34.60;;;;;;480915;246;1077;-73
2022/04/27 06:55:31;;;;;;;;;;;23.90;34.60;;;;;;481028;247;2196;-70
2022/04/27 06:57:33;;;;;;;;;;;23.80;34.80;;;;;;481201;247;1120;-69
2022/04/27 06:59:34;;;;;;;;;;;24.00;34.60;;;;;;481237;246;1139;-77
2022/04/27 07:01:35;;;;;;;;;;;24.20;34.30;;;;;;481401;246;1056;-76
2022/04/27 07:03:38;;;;;;;;;;;24.20;34.10;;;;;;481146;247;1054;-76
2022/04/27 07:05:38;;;;;;;;;;;23.90;34.30;;;;;;481115;247;1421;-76
2022/04/27 07:07:39;;;;;;;;;;;23.60;35.00;;;;;;481233;246;1113;-75
2022/04/27 07:09:41;;;;;;;;;;;23.50;35.00;;;;;;481236;246;1061;-73
2022/04/27 07:11:42;;;;;;;;;;;23.30;35.10;;;;;;481054;246;1499;-75
2022/04/27 07:13:43;;;;;;;;;;;22.70;35.90;;;;;;481138;247;1040;-69
2022/04/27 07:15:44;;;;;;;;;;;22.40;36.90;;;;;;481189;246;2177;-69
2022/04/27 07:17:46;;;;;;;;;;;22.20;37.10;;;;;;481795;246;1054;-66
2022/04/27 07:19:47;;;;;;;;;;;22.00;37.40;;;;;;481344;246;1107;-68
2022/04/27 07:21:48;;;;;;;;;;;21.90;37.60;;;;;;481105;246;1201;-68
2022/04/27 07:23:50;;;;;;;;;;;21.80;37.90;;;;;;481227;247;1221;-68
2022/04/27 07:25:51;;;;;;;;;;;21.70;38.10;;;;;;481035;247;1477;-68
2022/04/27 07:27:52;;;;;;;;;;;21.60;38.40;;;;;;481093;247;1157;-69
2022/04/27 07:29:54;;;;;;;;;;;21.60;38.40;;;;;;481171;246;1102;-68
2022/04/27 07:31:55;;;;;;;;;;;21.60;38.30;;;;;;481081;247;1157;-69
2022/04/27 07:33:56;;;;;;;;;;;21.60;38.20;;;;;;480963;246;2121;-68
2022/04/27 07:35:58;;;;;;;;;;;21.70;38.00;;;;;;481090;246;1152;-68
2022/04/27 07:37:59;;;;;;;;;;;21.80;37.90;;;;;;480968;246;1122;-68
2022/04/27 07:40:01;;;;;;;;;;;21.70;37.80;;;;;;480855;247;1147;-68
2022/04/27 07:42:02;;;;;;;;;;;21.90;37.60;;;;;;480895;246;1070;-68
2022/04/27 07:44:03;;;;;;;;;;;21.80;37.70;;;;;;480822;246;1193;-68
2022/04/27 07:46:06;;;;;;;;;;;21.60;38.00;;;;;;480990;246;1074;-69
2022/04/27 07:48:06;;;;;;;;;;;21.60;38.20;;;;;;472648;251;1271;-68
2022/04/27 07:50:08;;;;;;;;;;;21.60;38.30;;;;;;480876;246;1063;-68
2022/04/27 07:52:09;;;;;;;;;;;21.60;38.20;;;;;;480940;246;1225;-68
2022/04/27 07:54:11;;;;;;;;;;;21.60;38.10;;;;;;480834;247;2185;-66
2022/04/27 07:56:12;;;;;;;;;;;21.50;38.30;;;;;;480711;247;1560;-68
2022/04/27 07:58:13;;;;;;;;;;;21.50;38.30;;;;;;480994;246;1091;-68
2022/04/27 08:00:14;;;;;;;;;;;21.50;38.50;;;;;;480898;246;1248;-68
2022/04/27 08:02:16;;;;;;;;;;;21.40;38.70;;;;;;480730;247;1317;-68
2022/04/27 08:04:17;;;;;;;;;;;21.40;38.50;;;;;;481056;246;1071;-68
2022/04/27 08:06:18;;;;;;;;;;;21.40;38.40;;;;;;480667;246;1156;-68
2022/04/27 08:08:20;;;;;;;;;;;21.50;38.40;;;;;;480948;246;1184;-66
2022/04/27 08:10:21;;;;;;;;;;;21.50;38.20;;;;;;480951;246;1107;-68
2022/04/27 08:12:22;;;;;;;;;;;21.50;38.20;;;;;;480975;246;1203;-68
2022/04/27 08:14:24;;;;;;;;;;;21.60;38.10;;;;;;480900;246;2196;-68
2022/04/27 08:16:25;;;;;;;;;;;21.40;38.00;;;;;;480888;246;1655;-68
2022/04/27 08:18:27;;;;;;;;;;;21.50;38.00;;;;;;481056;246;1265;-68
2022/04/27 08:22:47;;;;;;;;;;;21.40;38.20;;;;;;489675;242;1119;-68
2022/04/27 08:24:48;;;;;;;;;;;21.30;38.30;;;;;;480923;247;1125;-67
2022/04/27 08:26:50;;;;;;;;;;;21.30;38.40;;;;;;480762;246;1117;-65
2022/04/27 08:28:51;;;;;;;;;;;21.30;38.30;;;;;;480916;246;1045;-66
2022/04/27 08:30:53;;;;;;;;;;;21.30;38.40;;;;;;480937;246;1415;-65
2022/04/27 08:32:54;;;;;;;;;;;21.30;38.50;;;;;;481120;246;1186;-64
2022/04/27 08:34:55;;;;;;;;;;;21.30;38.50;;;;;;481072;247;2189;-64
2022/04/27 08:36:57;;;;;;;;;;;21.20;38.50;;;;;;481017;246;1199;-65
2022/04/27 08:38:58;;;;;;;;;;;21.30;38.50;;;;;;481213;246;1180;-64
2022/04/27 08:40:59;;;;;;;;;;;21.40;38.50;;;;;;480936;246;1073;-66
2022/04/27 08:43:01;;;;;;;;;;;21.40;38.70;;;;;;481035;246;1063;-65
2022/04/27 08:45:02;;;;;;;;;;;21.40;38.70;;;;;;472833;251;1226;-66
2022/04/27 08:47:03;;;;;;;;;;;21.30;38.80;;;;;;481107;247;850;-66
2022/04/27 08:49:04;;;;;;;;;;;21.20;38.80;;;;;;481350;246;1065;-65
2022/04/27 08:51:08;;;;;;;;;;;21.30;38.70;;;;;;480875;247;1174;-76
2022/04/27 08:53:07;;;;;;;;;;;21.00;39.00;;;;;;480885;244;1256;-75
2022/04/27 08:55:08;;;;;;;;;;;20.90;39.30;;;;;;481004;247;2209;-76
2022/04/27 08:57:10;;;;;;;;;;;20.90;39.30;;;;;;481212;246;1088;-75
2022/04/27 08:59:11;;;;;;;;;;;20.70;39.60;;;;;;481000;247;1050;-75
2022/04/27 09:01:12;;;;;;;;;;;20.60;40.00;;;;;;480951;247;1173;-76
2022/04/27 09:03:14;;;;;;;;;;;20.60;40.10;;;;;;489992;242;1080;-76
2022/04/27 09:05:15;;;;;;;;;;;20.80;40.10;;;;;;472971;251;1059;-77
2022/04/27 09:07:16;;;;;;;;;;;20.60;40.10;;;;;;481072;247;1124;-65
2022/04/27 09:09:18;;;;;;;;;;;20.60;40.20;;;;;;480874;246;1094;-65
2022/04/27 09:11:19;;;;;;;;;;;21.10;39.20;;;;;;480749;246;1127;-65
2022/04/27 09:13:20;;;;;;;;;;;21.30;38.80;;;;;;480764;246;1161;-68
2022/04/27 09:15:22;;;;;;;;;;;21.40;38.60;;;;;;480852;246;2192;-68
2022/04/27 09:22:12;;;;;;;;;;;21.50;38.70;;;;;;458039;259;1328;-66
2022/04/27 09:24:13;;;;;;;;;;;21.50;38.70;;;;;;471674;251;1288;-68
2022/04/27 09:26:15;;;;;;;;;;;21.60;38.80;;;;;;480865;246;1227;-68
2022/04/27 09:28:16;;;;;;;;;;;21.40;39.00;;;;;;481123;246;1078;-68
2022/04/27 09:30:17;;;;;;;;;;;21.50;38.70;;;;;;481123;246;1168;-68
2022/04/27 09:32:18;;;;;;;;;;;21.60;38.70;;;;;;481060;246;1309;-67
2022/04/27 09:34:28;;;;;;;;;;;21.50;38.80;;;;;;480763;247;1107;-69
2022/04/27 09:36:29;;;;;;;;;;;21.50;38.90;;;;;;480821;246;2187;-69
2022/04/27 09:38:31;;;;;;;;;;;21.40;38.70;;;;;;481344;246;1181;-69
2022/04/27 09:40:32;;;;;;;;;;;21.40;38.50;;;;;;489837;242;1357;-69
2022/04/27 09:42:33;;;;;;;;;;;21.60;38.30;;;;;;472861;251;1176;-69
2022/04/27 09:44:34;;;;;;;;;;;21.40;38.60;;;;;;481105;246;1056;-69
2022/04/27 09:46:36;;;;;;;;;;;21.40;38.50;;;;;;480971;246;1249;-69
2022/04/27 09:48:38;;;;;;;;;;;21.40;38.60;;;;;;481120;246;1084;-70
2022/04/27 09:50:38;;;;;;;;;;;21.40;38.60;;;;;;481168;247;1204;-70
2022/04/27 09:52:40;;;;;;;;;;;21.40;38.60;;;;;;480925;247;1163;-70
2022/04/27 09:54:41;;;;;;;;;;;21.50;38.60;;;;;;480963;247;1155;-69
2022/04/27 09:56:42;;;;;;;;;;;21.50;38.50;;;;;;480906;246;1219;-69
2022/04/27 09:58:44;;;;;;;;;;;21.50;38.40;;;;;;481217;246;1253;-69
2022/04/27 10:00:45;;;;;;;;;;;21.50;38.40;;;;;;481000;247;1086;-69
2022/04/27 10:02:47;;;;;;;;;;;21.50;38.40;;;;;;481270;246;1233;-69
2022/04/27 10:04:47;;;;;;;;;;;21.60;38.40;;;;;;481078;246;1306;-69
2022/04/27 10:06:49;;;;;;;;;;;21.50;38.40;;;;;;481506;246;1419;-69
2022/04/27 10:08:51;;;;;;;;;;;21.60;38.40;;;;;;481389;246;1126;-69
2022/04/27 10:10:52;;;;;;;;;;;21.50;38.50;;;;;;480969;247;1216;-69
2022/04/27 10:12:53;;;;;;;;;;;21.50;38.60;;;;;;481213;247;1164;-69
2022/04/27 10:14:57;;;;;;;;;;;21.50;38.50;;;;;;481423;246;2177;-69
2022/04/27 10:16:56;;;;;;;;;;;21.50;38.50;;;;;;480966;246;1324;-69
2022/04/27 10:18:57;;;;;;;;;;;21.50;38.50;;;;;;481079;247;1068;-69
2022/04/27 10:20:59;;;;;;;;;;;21.50;38.80;;;;;;480908;247;1128;-69
2022/04/27 10:23:00;;;;;;;;;;;21.40;39.00;;;;;;481085;246;1143;-69
2022/04/27 10:25:01;;;;;;;;;;;21.40;39.20;;;;;;480995;247;1201;-69
2022/04/27 10:27:03;;;;;;;;;;;21.30;39.50;;;;;;481012;246;1483;-69
2022/04/27 10:29:05;;;;;;;;;;;21.40;39.40;;;;;;481144;247;1105;-68
2022/04/27 10:31:08;;;;;;;;;;;21.40;39.50;;;;;;481494;246;1409;-69
2022/04/27 10:33:09;;;;;;;;;;;21.40;39.50;;;;;;481043;246;1349;-69
2022/04/27 10:35:10;;;;;;;;;;;21.30;39.70;;;;;;480916;246;2185;-69
2022/04/27 10:37:11;;;;;;;;;;;21.30;39.80;;;;;;480890;247;1293;-69
2022/04/27 10:39:13;;;;;;;;;;;21.30;39.70;;;;;;481242;246;1173;-69
2022/04/27 10:41:14;;;;;;;;;;;21.40;39.40;;;;;;481069;247;1368;-69
2022/04/27 10:43:15;;;;;;;;;;;21.30;39.60;;;;;;481650;246;1263;-69
2022/04/27 10:45:17;;;;;;;;;;;21.30;39.50;;;;;;481618;246;830;-69
2022/04/27 10:47:18;;;;;;;;;;;21.30;39.40;;;;;;481645;246;1272;-69
2022/04/27 10:49:19;;;;;;;;;;;21.30;39.40;;;;;;481135;247;1076;-69
2022/04/27 10:51:21;;;;;;;;;;;21.40;39.30;;;;;;481146;246;1257;-69
2022/04/27 10:53:22;;;;;;;;;;;21.30;39.30;;;;;;481410;246;1181;-69
2022/04/27 10:55:23;;;;;;;;;;;21.30;39.30;;;;;;480957;247;2200;-69
2022/04/27 10:57:25;;;;;;;;;;;21.40;39.20;;;;;;481102;246;1054;-69
2022/04/27 10:59:26;;;;;;;;;;;21.40;39.20;;;;;;481267;246;1242;-69
2022/04/27 11:01:27;;;;;;;;;;;21.40;39.20;;;;;;481008;247;1127;-69
2022/04/27 11:03:29;;;;;;;;;;;21.40;39.10;;;;;;481275;246;1227;-69
2022/04/27 11:05:30;;;;;;;;;;;21.30;39.00;;;;;;481000;246;1547;-69
2022/04/27 11:07:31;;;;;;;;;;;21.30;39.10;;;;;;480855;246;1242;-69
2022/04/27 11:09:33;;;;;;;;;;;21.30;39.20;;;;;;480688;244;1257;-69
2022/04/27 11:11:34;;;;;;;;;;;21.40;39.00;;;;;;472394;251;1285;-69
2022/04/27 11:13:36;;;;;;;;;;;21.40;39.00;;;;;;480751;246;1073;-69
2022/04/27 11:15:37;;;;;;;;;;;21.40;39.10;;;;;;480792;246;2187;-69
2022/04/27 11:17:38;;;;;;;;;;;21.30;39.10;;;;;;480815;247;1255;-68
2022/04/27 11:19:41;;;;;;;;;;;21.40;39.00;;;;;;481091;246;1197;-69
2022/04/27 11:21:41;;;;;;;;;;;21.30;39.10;;;;;;480963;246;1315;-68
2022/04/27 11:23:42;;;;;;;;;;;21.30;39.10;;;;;;480965;247;1070;-68
2022/04/27 11:25:43;;;;;;;;;;;21.20;39.20;;;;;;481000;246;1199;-68
2022/04/27 11:27:45;;;;;;;;;;;21.30;39.10;;;;;;481068;247;1358;-68
2022/04/27 11:29:46;;;;;;;;;;;21.30;39.10;;;;;;480929;247;779;-68
2022/04/27 11:31:48;;;;;;;;;;;21.20;39.10;;;;;;481271;246;1122;-68
2022/04/27 11:33:49;;;;;;;;;;;21.20;39.10;;;;;;481150;247;1050;-70
2022/04/27 11:35:50;;;;;;;;;;;21.20;39.20;;;;;;480942;246;2121;-67
2022/04/27 11:37:52;;;;;;;;;;;21.20;39.20;;;;;;472869;251;1060;-68
2022/04/27 11:39:54;;;;;;;;;;;21.20;39.00;;;;;;481201;246;1050;-68
2022/04/27 11:41:54;;;;;;;;;;;21.40;38.60;;;;;;481493;246;1280;-68
2022/04/27 11:43:56;;;;;;;;;;;21.20;39.00;;;;;;481089;247;807;-68
2022/04/27 11:45:57;;;;;;;;;;;21.10;39.10;;;;;;480993;247;1359;-68
2022/04/27 11:47:58;;;;;;;;;;;21.20;39.10;;;;;;481541;246;944;-68
2022/04/27 11:50:00;;;;;;;;;;;21.20;39.00;;;;;;481409;246;819;-67
2022/04/27 11:52:01;;;;;;;;;;;21.10;39.30;;;;;;481502;246;1048;-66
2022/04/27 11:54:02;;;;;;;;;;;21.10;39.10;;;;;;480993;246;1134;-66
2022/04/27 11:56:04;;;;;;;;;;;21.30;38.80;;;;;;480803;247;2188;-66
2022/04/27 11:58:05;;;;;;;;;;;21.20;38.80;;;;;;480922;246;1344;-67
2022/04/27 12:00:06;;;;;;;;;;;21.10;38.80;;;;;;481190;246;1078;-67
2022/04/27 12:02:08;;;;;;;;;;;21.20;38.80;;;;;;481034;247;1401;-66
2022/04/27 12:04:09;;;;;;;;;;;21.20;38.90;;;;;;481032;246;1095;-66
2022/04/27 12:06:11;;;;;;;;;;;21.40;38.50;;;;;;480818;247;1105;-66
2022/04/27 12:08:12;;;;;;;;;;;21.20;38.80;;;;;;480939;247;1155;-66
2022/04/27 12:10:14;;;;;;;;;;;21.10;39.10;;;;;;480999;246;1184;-66
2022/04/27 12:12:15;;;;;;;;;;;21.20;38.90;;;;;;480954;247;1893;-66
2022/04/27 12:14:16;;;;;;;;;;;21.30;38.60;;;;;;481039;246;1116;-66
2022/04/27 12:16:17;;;;;;;;;;;21.30;38.50;;;;;;480938;246;2196;-66
2022/04/27 12:18:19;;;;;;;;;;;21.20;38.40;;;;;;481235;246;1250;-66
2022/04/27 12:20:21;;;;;;;;;;;21.30;38.40;;;;;;480904;247;1403;-67
2022/04/27 12:22:21;;;;;;;;;;;21.10;38.60;;;;;;480904;246;1350;-67